createdAt,value
2022-12-06T00:01:09.587Z,5.68
2022-12-06T00:03:36.416Z,5.53
2022-12-06T00:06:07.749Z,5.45
2022-12-06T00:08:34.372Z,5.28
2022-12-06T00:11:04.689Z,5.88
2022-12-06T00:13:31.168Z,5.10
2022-12-06T00:15:59.946Z,5.88
2022-12-06T00:18:26.404Z,5.57
2022-12-06T00:20:52.830Z,5.38
2022-12-06T00:23:19.182Z,5.47
2022-12-06T00:25:45.571Z,5.38
2022-12-06T00:28:13.037Z,5.03
2022-12-06T00:30:39.424Z,5.35
2022-12-06T00:33:05.865Z,4.85
2022-12-06T00:35:32.201Z,4.88
2022-12-06T00:37:58.545Z,5.53
2022-12-06T00:40:24.976Z,5.18
2022-12-06T00:42:51.420Z,5.15
2022-12-06T00:45:17.831Z,5.28
2022-12-06T00:47:44.431Z,5.35
2022-12-06T00:50:11.147Z,5.88
2022-12-06T00:52:37.579Z,5.60
2022-12-06T00:55:04.098Z,4.80
2022-12-06T00:57:30.626Z,5.22
2022-12-06T00:59:57.149Z,4.95
2022-12-06T01:02:23.674Z,4.65
2022-12-06T01:04:50.111Z,4.25
2022-12-06T01:07:16.510Z,4.30
2022-12-06T01:09:46.078Z,5.00
2022-12-06T01:12:12.533Z,4.38
2022-12-06T01:14:38.910Z,4.57
2022-12-06T01:17:05.436Z,4.93
2022-12-06T01:19:31.931Z,4.75
2022-12-06T01:21:58.306Z,4.43
2022-12-06T01:24:24.688Z,4.70
2022-12-06T01:26:51.053Z,4.13
2022-12-06T01:29:18.964Z,4.70
2022-12-06T01:31:45.274Z,4.72
2022-12-06T01:34:14.673Z,4.65
2022-12-06T01:36:41.124Z,4.18
2022-12-06T01:39:10.656Z,4.97
2022-12-06T01:41:37.557Z,4.32
2022-12-06T01:44:04.498Z,3.70
2022-12-06T01:46:33.886Z,4.75
2022-12-06T01:49:06.593Z,3.55
2022-12-06T01:51:33.320Z,3.45
2022-12-06T01:54:01.538Z,3.67
2022-12-06T01:56:27.896Z,3.50
2022-12-06T01:58:56.523Z,4.35
2022-12-06T02:01:24.091Z,3.50
2022-12-06T02:03:51.345Z,3.83
2022-12-06T02:06:17.892Z,3.90
2022-12-06T02:08:45.034Z,3.78
2022-12-06T02:11:11.533Z,4.00
2022-12-06T02:13:38.545Z,3.95
2022-12-06T02:16:07.961Z,3.60
2022-12-06T02:18:35.481Z,3.50
2022-12-06T02:21:12.534Z,3.75
2022-12-06T02:24:00.285Z,3.05
2022-12-06T02:26:36.172Z,3.75
2022-12-06T02:29:17.890Z,3.63
2022-12-06T02:31:52.006Z,3.92
2022-12-06T02:34:26.139Z,3.80
2022-12-06T02:36:59.201Z,3.85
2022-12-06T02:39:45.803Z,3.72
2022-12-06T02:42:14.876Z,3.20
2022-12-06T02:44:43.483Z,3.83
2022-12-06T02:47:11.856Z,3.50
2022-12-06T02:49:44.718Z,3.40
2022-12-06T02:52:11.738Z,3.28
2022-12-06T02:54:39.182Z,3.58
2022-12-06T02:57:05.517Z,3.25
2022-12-06T02:59:32.021Z,3.25
2022-12-06T03:02:00.128Z,3.10
2022-12-06T03:04:34.946Z,3.38
2022-12-06T03:07:20.055Z,3.47
2022-12-06T03:09:46.421Z,3.45
2022-12-06T03:12:30.587Z,3.33
2022-12-06T03:15:09.975Z,3.28
2022-12-06T03:17:47.174Z,3.00
2022-12-06T03:20:34.441Z,3.30
2022-12-06T03:23:07.037Z,3.10
2022-12-06T03:25:35.304Z,2.60
2022-12-06T03:28:03.086Z,2.92
2022-12-06T03:30:31.334Z,2.80
2022-12-06T03:32:58.026Z,2.90
2022-12-06T03:35:26.967Z,2.55
2022-12-06T03:37:57.173Z,2.80
2022-12-06T03:40:28.276Z,2.45
2022-12-06T03:45:23.338Z,2.50
2022-12-06T03:47:49.821Z,2.30
2022-12-06T03:50:21.836Z,2.45
2022-12-06T03:52:50.078Z,2.40
2022-12-06T03:55:16.467Z,2.63
2022-12-06T03:57:43.018Z,2.10
2022-12-06T04:00:09.738Z,2.13
2022-12-06T04:02:37.933Z,2.65
2022-12-06T04:05:04.613Z,2.17
2022-12-06T04:07:31.843Z,2.53
2022-12-06T04:10:07.293Z,2.80
2022-12-06T04:12:52.905Z,2.28
2022-12-06T04:15:20.568Z,2.17
2022-12-06T04:18:05.531Z,2.33
2022-12-06T04:20:55.396Z,2.42
2022-12-06T04:23:21.730Z,2.25
2022-12-06T04:25:48.747Z,2.75
2022-12-06T04:28:33.777Z,2.05
2022-12-06T04:31:22.302Z,2.38
2022-12-06T04:34:08.045Z,2.75
2022-12-06T04:36:52.841Z,2.22
2022-12-06T04:39:21.084Z,2.55
2022-12-06T04:42:06.386Z,2.30
2022-12-06T04:44:32.758Z,2.88
2022-12-06T04:47:00.028Z,2.83
2022-12-06T04:49:26.947Z,2.40
2022-12-06T04:51:53.951Z,2.22
2022-12-06T04:54:20.793Z,2.10
2022-12-06T04:56:47.081Z,2.20
2022-12-06T04:59:13.608Z,2.08
2022-12-06T05:01:40.002Z,2.58
2022-12-06T05:04:06.595Z,2.33
2022-12-06T05:06:33.123Z,2.20
2022-12-06T05:08:59.523Z,2.17
2022-12-06T05:11:25.806Z,2.08
2022-12-06T05:13:52.161Z,2.20
2022-12-06T05:16:18.554Z,2.13
2022-12-06T05:18:44.889Z,2.28
2022-12-06T05:21:16.100Z,1.98
2022-12-06T05:26:12.718Z,2.10
2022-12-06T05:28:39.238Z,2.10
2022-12-06T05:31:05.698Z,1.90
2022-12-06T05:33:32.270Z,2.25
2022-12-06T05:35:59.772Z,2.22
2022-12-06T05:38:26.169Z,2.38
2022-12-06T05:40:52.507Z,2.08
2022-12-06T05:43:18.887Z,2.10
2022-12-06T05:45:45.343Z,2.25
2022-12-06T05:48:11.843Z,1.92
2022-12-06T05:50:38.199Z,1.92
2022-12-06T05:53:04.629Z,2.20
2022-12-06T05:55:31.017Z,2.33
2022-12-06T05:57:57.362Z,2.50
2022-12-06T06:00:23.840Z,2.03
2022-12-06T06:02:50.503Z,2.33
2022-12-06T06:05:17.320Z,2.65
2022-12-06T06:07:43.774Z,2.00
2022-12-06T06:10:10.870Z,2.35
2022-12-06T06:12:37.262Z,2.30
2022-12-06T06:15:07.016Z,2.08
2022-12-06T06:17:34.204Z,2.08
2022-12-06T06:20:05.596Z,1.98
2022-12-06T06:22:34.031Z,2.20
2022-12-06T06:25:00.832Z,2.38
2022-12-06T06:27:28.078Z,2.38
2022-12-06T06:29:54.493Z,2.08
2022-12-06T06:32:21.025Z,2.10
2022-12-06T06:34:47.555Z,2.00
2022-12-06T06:37:13.864Z,2.20
2022-12-06T06:39:40.379Z,2.13
2022-12-06T06:42:06.921Z,2.00
2022-12-06T06:44:33.411Z,2.17
2022-12-06T06:46:59.983Z,2.28
2022-12-06T06:49:26.396Z,2.38
2022-12-06T06:51:52.750Z,2.00
2022-12-06T06:54:19.209Z,2.13
2022-12-06T06:56:45.576Z,1.83
2022-12-06T06:59:12.117Z,2.13
2022-12-06T07:01:38.612Z,1.92
2022-12-06T07:04:05.259Z,2.38
2022-12-06T07:06:31.653Z,2.45
2022-12-06T07:08:58.153Z,2.33
2022-12-06T07:11:24.511Z,2.00
2022-12-06T07:13:52.759Z,2.33
2022-12-06T07:16:19.537Z,3.25
2022-12-06T07:18:47.533Z,3.58
2022-12-06T07:21:14.757Z,2.15
2022-12-06T07:23:41.448Z,4.20
2022-12-06T07:26:12.640Z,2.55
2022-12-06T07:31:12.929Z,4.50
2022-12-06T07:33:39.923Z,4.15
2022-12-06T07:36:14.280Z,5.20
2022-12-06T07:38:46.937Z,5.10
2022-12-06T07:41:32.149Z,5.00
2022-12-06T07:44:18.050Z,2.72
2022-12-06T07:46:44.475Z,4.47
2022-12-06T07:49:10.946Z,2.72
2022-12-06T07:51:37.421Z,2.22
2022-12-06T07:54:03.821Z,1.73
2022-12-06T07:56:30.220Z,3.25
2022-12-06T07:58:56.535Z,1.92
2022-12-06T08:01:23.528Z,2.53
2022-12-06T08:03:50.446Z,1.83
2022-12-06T08:06:17.031Z,5.60
2022-12-06T08:08:43.522Z,4.55
2022-12-06T08:11:09.838Z,2.90
2022-12-06T08:13:36.908Z,3.47
2022-12-06T08:16:07.380Z,2.10
2022-12-06T08:18:33.954Z,2.28
2022-12-06T08:21:00.718Z,1.75
2022-12-06T08:23:33.643Z,2.40
2022-12-06T08:26:02.081Z,2.40
2022-12-06T08:28:28.830Z,2.42
2022-12-06T08:31:01.248Z,2.15
2022-12-06T08:33:29.209Z,2.10
2022-12-06T08:35:55.683Z,2.00
2022-12-06T08:38:22.084Z,1.73
2022-12-06T08:40:48.355Z,2.10
2022-12-06T08:43:14.957Z,1.83
2022-12-06T08:45:41.345Z,2.75
2022-12-06T08:48:07.733Z,2.15
2022-12-06T08:50:34.017Z,2.90
2022-12-06T08:53:02.644Z,2.38
2022-12-06T08:55:28.998Z,2.65
2022-12-06T08:57:55.549Z,2.75
2022-12-06T09:00:21.930Z,3.25
2022-12-06T09:02:48.321Z,2.60
2022-12-06T09:05:14.729Z,2.50
2022-12-06T09:07:43.509Z,3.33
2022-12-06T09:10:10.163Z,4.90
2022-12-06T09:12:42.617Z,4.45
2022-12-06T09:15:09.289Z,4.85
2022-12-06T09:17:35.812Z,4.70
2022-12-06T09:20:06.049Z,4.60
2022-12-06T09:22:33.060Z,4.25
2022-12-06T09:24:59.632Z,4.25
2022-12-06T09:27:25.985Z,4.07
2022-12-06T09:29:53.095Z,4.47
2022-12-06T09:32:19.502Z,4.82
2022-12-06T09:34:45.893Z,5.05
2022-12-06T09:37:13.099Z,5.15
2022-12-06T09:39:41.993Z,4.82
2022-12-06T09:42:20.735Z,4.68
2022-12-06T09:44:54.791Z,5.18
2022-12-06T09:47:39.525Z,5.45
2022-12-06T09:50:22.503Z,5.15
2022-12-06T09:53:07.560Z,5.00
2022-12-06T09:55:46.529Z,5.38
2022-12-06T09:58:28.461Z,5.00
2022-12-06T10:01:21.597Z,4.82
2022-12-06T10:03:59.304Z,4.50
2022-12-06T10:06:30.587Z,4.72
2022-12-06T10:11:29.476Z,4.70
2022-12-06T10:14:04.638Z,4.50
2022-12-06T10:16:44.763Z,4.68
2022-12-06T10:19:26.386Z,4.80
2022-12-06T10:22:00.919Z,5.20
2022-12-06T10:24:27.328Z,4.70
2022-12-06T10:26:54.782Z,5.72
2022-12-06T10:29:31.215Z,5.43
2022-12-06T10:31:57.988Z,5.10
2022-12-06T10:34:30.504Z,5.00
2022-12-06T10:36:59.725Z,5.70
2022-12-06T10:39:52.016Z,5.43
2022-12-06T10:42:39.066Z,5.80
2022-12-06T10:45:36.075Z,5.40
2022-12-06T10:48:06.879Z,5.45
2022-12-06T10:50:37.615Z,5.07
2022-12-06T10:53:06.257Z,5.60
2022-12-06T10:55:41.748Z,5.20
2022-12-06T10:58:08.169Z,5.00
2022-12-06T11:00:36.867Z,5.28
2022-12-06T11:03:19.958Z,5.25
2022-12-06T11:05:46.290Z,5.15
2022-12-06T11:08:27.789Z,4.70
2022-12-06T11:10:55.826Z,4.70
2022-12-06T11:13:29.279Z,5.00
2022-12-06T11:16:00.974Z,4.88
2022-12-06T11:18:29.315Z,4.78
2022-12-06T11:21:01.776Z,4.75
2022-12-06T11:23:28.113Z,4.80
2022-12-06T11:25:57.461Z,4.35
2022-12-06T11:28:41.933Z,4.40
2022-12-06T11:31:24.632Z,4.30
2022-12-06T11:33:51.138Z,4.32
2022-12-06T11:36:17.799Z,4.43
2022-12-06T11:38:44.559Z,4.82
2022-12-06T11:41:13.552Z,4.07
2022-12-06T11:43:40.103Z,3.63
2022-12-06T11:46:06.875Z,4.30
2022-12-06T11:48:34.678Z,4.40
2022-12-06T11:51:04.018Z,3.72
2022-12-06T11:53:30.496Z,3.92
2022-12-06T11:55:58.358Z,4.38
2022-12-06T11:58:28.065Z,4.00
2022-12-06T12:00:59.159Z,4.00
2022-12-06T12:05:51.985Z,3.33
2022-12-06T12:08:19.636Z,3.80
2022-12-06T12:10:46.826Z,3.28
2022-12-06T12:13:31.912Z,3.58
2022-12-06T12:16:03.665Z,3.42
2022-12-06T12:18:32.202Z,3.35
2022-12-06T12:20:59.405Z,3.40
2022-12-06T12:23:29.378Z,3.08
2022-12-06T12:26:03.945Z,2.83
2022-12-06T12:28:34.646Z,2.80
2022-12-06T12:31:09.228Z,2.60
2022-12-06T12:33:36.218Z,2.70
2022-12-06T12:36:02.757Z,2.80
2022-12-06T12:38:36.878Z,2.60
2022-12-06T12:41:12.529Z,2.63
2022-12-06T12:43:39.743Z,2.33
2022-12-06T12:46:11.994Z,2.13
2022-12-06T12:48:39.415Z,2.13
2022-12-06T12:51:25.245Z,2.20
2022-12-06T12:53:57.027Z,2.15
2022-12-06T12:56:23.748Z,2.28
2022-12-06T12:58:51.741Z,2.20
2022-12-06T13:01:24.298Z,2.40
2022-12-06T13:04:10.921Z,2.75
2022-12-06T13:06:37.241Z,2.05
2022-12-06T13:09:04.219Z,2.60
2022-12-06T13:11:31.308Z,2.63
2022-12-06T13:13:58.463Z,2.10
2022-12-06T13:16:29.189Z,2.10
2022-12-06T13:18:56.494Z,2.60
2022-12-06T13:21:24.158Z,3.25
2022-12-06T13:23:52.593Z,2.40
2022-12-06T13:26:18.912Z,2.50
2022-12-06T13:28:47.033Z,2.30
2022-12-06T13:31:15.979Z,2.45
2022-12-06T13:33:46.777Z,2.20
2022-12-06T13:36:14.106Z,2.95
2022-12-06T13:38:42.193Z,2.30
2022-12-06T13:41:40.450Z,2.40
2022-12-06T13:44:26.777Z,2.53
2022-12-06T13:47:13.111Z,2.38
2022-12-06T13:49:47.357Z,2.60
2022-12-06T13:52:34.213Z,2.17
2022-12-06T13:55:19.413Z,2.25
2022-12-06T13:57:45.989Z,2.40
2022-12-06T14:00:29.835Z,2.50
2022-12-06T14:02:59.346Z,2.30
2022-12-06T14:05:44.807Z,2.60
2022-12-06T14:08:12.413Z,2.45
2022-12-06T14:10:38.932Z,2.35
2022-12-06T14:13:08.114Z,2.55
2022-12-06T14:15:38.597Z,2.30
2022-12-06T14:18:12.588Z,2.20
2022-12-06T14:20:41.237Z,2.60
2022-12-06T14:23:21.697Z,2.85
2022-12-06T14:25:48.005Z,2.73
2022-12-06T14:28:14.478Z,2.50
2022-12-06T14:30:41.333Z,2.10
2022-12-06T14:33:23.243Z,2.58
2022-12-06T14:35:51.395Z,2.28
2022-12-06T14:38:17.800Z,2.40
2022-12-06T14:41:02.829Z,2.88
2022-12-06T14:43:30.626Z,2.00
2022-12-06T14:46:00.741Z,1.70
2022-12-06T14:48:27.862Z,1.57
2022-12-06T14:50:57.266Z,1.40
2022-12-06T14:53:29.998Z,1.90
2022-12-06T14:56:01.055Z,1.80
2022-12-06T14:58:32.843Z,1.70
2022-12-06T15:01:00.561Z,2.22
2022-12-06T15:03:28.815Z,2.10
2022-12-06T15:06:13.778Z,2.30
2022-12-06T15:08:41.124Z,2.00
2022-12-06T15:11:10.510Z,2.65
2022-12-06T15:13:37.620Z,2.00
2022-12-06T15:16:11.661Z,2.10
2022-12-06T15:18:40.136Z,1.98
2022-12-06T15:21:11.172Z,1.95
2022-12-06T15:23:39.114Z,2.20
2022-12-06T15:26:07.040Z,2.00
2022-12-06T15:28:35.891Z,2.10
2022-12-06T15:31:04.089Z,2.63
2022-12-06T15:33:30.723Z,2.65
2022-12-06T15:35:58.260Z,2.42
2022-12-06T15:38:25.662Z,2.53
2022-12-06T15:40:53.592Z,2.60
2022-12-06T15:43:25.008Z,2.20
2022-12-06T15:45:52.282Z,2.60
2022-12-06T15:48:18.726Z,2.78
2022-12-06T15:50:45.167Z,2.38
2022-12-06T15:53:19.408Z,2.63
2022-12-06T15:55:45.861Z,2.53
2022-12-06T15:58:12.227Z,3.00
2022-12-06T16:00:38.578Z,3.22
2022-12-06T16:03:05.080Z,2.78
2022-12-06T16:05:31.439Z,3.03
2022-12-06T16:07:57.858Z,2.80
2022-12-06T16:10:32.960Z,2.88
2022-12-06T16:13:24.154Z,2.90
2022-12-06T16:15:51.465Z,3.15
2022-12-06T16:18:17.846Z,3.67
2022-12-06T16:20:44.333Z,3.67
2022-12-06T16:23:49.420Z,3.33
2022-12-06T16:26:17.421Z,3.60
2022-12-06T16:28:43.714Z,2.65
2022-12-06T16:31:13.668Z,2.55
2022-12-06T16:33:40.366Z,2.90
2022-12-06T16:36:12.450Z,4.25
2022-12-06T16:38:38.972Z,2.85
2022-12-06T16:41:09.579Z,3.05
2022-12-06T16:43:36.127Z,2.80
2022-12-06T16:46:18.159Z,3.05
2022-12-06T16:48:44.551Z,3.00
2022-12-06T16:51:10.981Z,3.13
2022-12-06T16:53:37.530Z,3.13
2022-12-06T16:56:03.968Z,3.00
2022-12-06T16:58:30.363Z,3.40
2022-12-06T17:00:56.786Z,3.90
2022-12-06T17:03:23.197Z,4.18
2022-12-06T17:05:49.631Z,3.28
2022-12-06T17:08:21.946Z,3.55
2022-12-06T17:10:48.729Z,4.13
2022-12-06T17:13:15.087Z,3.80
2022-12-06T17:15:41.513Z,3.72
2022-12-06T17:18:07.930Z,3.67
2022-12-06T17:20:34.289Z,3.70
2022-12-06T17:23:00.842Z,3.53
2022-12-06T17:25:27.187Z,3.10
2022-12-06T17:27:53.482Z,2.78
2022-12-06T17:30:19.948Z,3.15
2022-12-06T17:32:47.195Z,3.08
2022-12-06T17:35:14.260Z,2.88
2022-12-06T17:37:40.666Z,3.30
2022-12-06T17:40:07.302Z,3.75
2022-12-06T17:42:52.548Z,3.75
2022-12-06T17:45:24.553Z,3.75
2022-12-06T17:47:51.246Z,4.30
2022-12-06T17:50:17.621Z,3.95
2022-12-06T17:52:44.133Z,4.03
2022-12-06T17:55:12.937Z,4.28
2022-12-06T17:57:39.240Z,4.13
2022-12-06T18:00:06.114Z,4.07
2022-12-06T18:02:33.426Z,4.10
2022-12-06T18:05:01.070Z,3.60
2022-12-06T18:07:27.664Z,3.78
2022-12-06T18:09:54.710Z,3.55
2022-12-06T18:12:21.129Z,3.95
2022-12-06T18:14:47.537Z,3.70
2022-12-06T18:17:13.995Z,3.97
2022-12-06T18:19:41.025Z,3.78
2022-12-06T18:22:07.751Z,4.40
2022-12-06T18:24:36.133Z,4.53
2022-12-06T18:27:03.626Z,4.32
2022-12-06T18:29:30.128Z,3.60
2022-12-06T18:31:56.880Z,3.90
2022-12-06T18:34:23.345Z,3.80
2022-12-06T18:36:49.659Z,4.22
2022-12-06T18:39:17.219Z,4.57
2022-12-06T18:41:44.539Z,5.03
2022-12-06T18:44:11.190Z,4.82
2022-12-06T18:46:38.926Z,4.38
2022-12-06T18:49:05.748Z,4.43
2022-12-06T18:51:33.508Z,4.50
2022-12-06T18:54:04.920Z,4.68
2022-12-06T18:56:32.034Z,4.45
2022-12-06T18:58:59.964Z,5.15
2022-12-06T19:01:27.944Z,4.82
2022-12-06T19:03:55.239Z,4.93
2022-12-06T19:06:26.134Z,5.97
2022-12-06T19:08:53.613Z,5.25
2022-12-06T19:11:20.046Z,5.60
2022-12-06T19:13:56.773Z,5.20
2022-12-06T19:16:26.812Z,5.53
2022-12-06T19:18:57.039Z,4.57
2022-12-06T19:21:23.936Z,4.78
2022-12-06T19:23:54.301Z,4.55
2022-12-06T19:26:21.254Z,4.70
2022-12-06T19:28:47.893Z,5.30
2022-12-06T19:31:14.639Z,5.40
2022-12-06T19:33:43.275Z,4.75
2022-12-06T19:36:23.308Z,5.20
2022-12-06T19:38:55.017Z,5.40
2022-12-06T19:41:21.365Z,5.70
2022-12-06T19:44:06.168Z,5.32
2022-12-06T19:46:32.632Z,5.03
2022-12-06T19:49:00.368Z,4.97
2022-12-06T19:51:28.971Z,4.72
2022-12-06T19:53:57.755Z,4.90
2022-12-06T19:56:24.668Z,4.60
2022-12-06T19:58:51.064Z,4.88
2022-12-06T20:01:19.632Z,5.03
2022-12-06T20:03:47.179Z,5.03
2022-12-06T20:06:18.215Z,5.15
2022-12-06T20:08:45.584Z,4.80
2022-12-06T20:11:33.201Z,4.70
2022-12-06T20:14:04.541Z,5.18
2022-12-06T20:16:31.129Z,4.82
2022-12-06T20:18:57.644Z,4.47
2022-12-06T20:21:24.278Z,5.30
2022-12-06T20:23:50.984Z,4.75
2022-12-06T20:26:17.323Z,5.30
2022-12-06T20:28:44.688Z,4.60
2022-12-06T20:31:17.288Z,5.18
2022-12-06T20:33:44.024Z,4.80
2022-12-06T20:36:20.207Z,5.28
2022-12-06T20:38:46.698Z,5.43
2022-12-06T20:41:16.715Z,5.55
2022-12-06T20:43:43.541Z,5.03
2022-12-06T20:46:15.038Z,4.85
2022-12-06T20:48:42.674Z,5.05
2022-12-06T20:51:13.379Z,5.63
2022-12-06T20:53:40.794Z,5.70
2022-12-06T20:56:08.706Z,4.85
2022-12-06T20:58:35.473Z,5.57
2022-12-06T21:01:02.930Z,5.07
2022-12-06T21:03:30.121Z,4.97
2022-12-06T21:06:00.507Z,5.25
2022-12-06T21:08:27.349Z,5.20
2022-12-06T21:11:21.767Z,5.35
2022-12-06T21:13:41.545Z,5.57
2022-12-06T21:16:09.149Z,5.57
2022-12-06T21:18:35.623Z,5.57
2022-12-06T21:21:02.248Z,5.50
2022-12-06T21:23:29.078Z,5.75
2022-12-06T21:25:55.557Z,5.70
2022-12-06T21:28:21.982Z,5.60
2022-12-06T21:30:52.127Z,5.18
2022-12-06T21:33:19.185Z,5.10
2022-12-06T21:35:45.955Z,5.90
2022-12-06T21:38:13.246Z,6.25
2022-12-06T21:40:39.658Z,5.85
2022-12-06T21:43:06.310Z,6.40
2022-12-06T21:45:39.207Z,6.57
2022-12-06T21:48:06.454Z,5.38
2022-12-06T21:50:33.084Z,5.95
2022-12-06T21:52:59.511Z,6.57
2022-12-06T21:55:25.923Z,5.60
2022-12-06T21:57:52.233Z,5.88
2022-12-06T22:00:19.186Z,6.60
2022-12-06T22:02:49.783Z,6.00
2022-12-06T22:05:16.454Z,6.82
2022-12-06T22:07:43.297Z,6.32
2022-12-06T22:10:10.332Z,6.20
2022-12-06T22:12:36.755Z,6.00
2022-12-06T22:15:03.223Z,6.20
2022-12-06T22:17:29.563Z,7.03
2022-12-06T22:19:56.066Z,8.15
2022-12-06T22:22:23.494Z,6.97
2022-12-06T22:24:49.837Z,6.80
2022-12-06T22:27:16.205Z,6.47
2022-12-06T22:29:42.547Z,6.30
2022-12-06T22:32:08.917Z,6.00
2022-12-06T22:34:35.310Z,6.47
2022-12-06T22:37:01.720Z,7.03
2022-12-06T22:39:28.008Z,7.00
2022-12-06T22:41:54.470Z,7.32
2022-12-06T22:44:20.812Z,7.63
2022-12-06T22:46:47.165Z,8.00
2022-12-06T22:49:17.888Z,9.68
2022-12-06T22:51:44.823Z,11.02
2022-12-06T22:54:12.382Z,13.68
2022-12-06T22:56:40.433Z,12.15
2022-12-06T22:59:07.235Z,9.48
2022-12-06T23:01:34.546Z,8.13
2022-12-06T23:04:02.233Z,6.90
2022-12-06T23:06:28.681Z,7.13
2022-12-06T23:08:55.600Z,6.88
2022-12-06T23:11:24.903Z,7.13
2022-12-06T23:13:51.272Z,7.15
2022-12-06T23:16:18.967Z,7.35
2022-12-06T23:18:45.858Z,7.68
2022-12-06T23:21:13.274Z,7.40
2022-12-06T23:23:41.218Z,7.38
2022-12-06T23:26:09.424Z,6.82
2022-12-06T23:28:36.282Z,6.90
2022-12-06T23:31:04.112Z,7.15
2022-12-06T23:33:31.192Z,7.43
2022-12-06T23:36:01.525Z,7.55
2022-12-06T23:38:27.824Z,6.83
2022-12-06T23:40:54.156Z,7.30
2022-12-06T23:43:20.530Z,7.13
2022-12-06T23:45:57.879Z,7.55
2022-12-06T23:48:26.005Z,6.95
2022-12-06T23:50:59.420Z,7.22
2022-12-06T23:53:25.793Z,6.70
2022-12-06T23:55:52.104Z,6.55
2022-12-06T23:58:18.401Z,6.88
